Tres Piedras, NM

5:09 AM MDT on July 13, 2014 (GMT -0600)
San Luis Valley Regional / Bergman Field (KALS) Elev 7543 ft | 37.44 °N, 105.86 °W | Change Station

Current weather conditions updated 17 minutes ago

Overcast
Overcast
57 °F
Feels Like 57 °F
N
6
Wind Variable Wind from SSW

Today is forecast to be Much Cooler than yesterday. Showers and thunderstorms late.

Today
High -- | Low -- °F
--% Chance of Precip.
Yesterday
High -- | Low -- °F
Precip. -- in
5:55 AM 8:23 PM
Full, 98% visible
Pressure 30.16 in
Visibility 10.0 miles
Clouds Overcast 10000 ft
Dew Point 50 °F
Humidity 77%
Rainfall 0.00 in
Snow Depth 0 in
UV 0 out of 12
Pollen 5.10 out of 12
Air Quality Not available.
Flu Activity Sporadic
METAR KALS 131052Z AUTO 21005KT 10SM OVC100 14/10 A3044 RMK AO2 SLP213 T01390100

More Conditions Fewer Conditions

Pressure 30.16 in
Visibility 10.0 miles
Clouds Overcast 10000 ft
Dew Point 50 °F
Humidity 77%
Rainfall 0.00 in
Snow Depth 0 in
UV 0 out of 12
Pollen 5.10 out of 12
Air Quality Not available.
Flu Activity Sporadic
METAR KALS 131052Z AUTO 21005KT 10SM OVC100 14/10 A3044 RMK AO2 SLP213 T01390100

More Conditions Fewer Conditions

10-Day Weather Forecast

Almanac

Astronomy

Jul. 13, 2014 Rise Set
Actual Time 5:55 AM MDT 8:23 PM MDT
Civil Twilight 5:25 AM MDT 8:53 PM MDT
Nautical Twilight 4:48 AM MDT 9:30 PM MDT
Astronomical Twilight 4:07 AM MDT 10:10 PM MDT
Moon 9:18 PM MDT 7:25 AM MDT
Length of Visible Light 15h 27m
Length of Day
14h 27m
Tomorrow will be 1m 6s shorter.
Full, 98% of the Moon is Illuminated
Today
Full
Jul 18
Last Quarter
Jul 26
New
Aug 3
First Quarter
Aug 10
Full

Today's Extremes

State Highs State Lows

Community

WunderPhotos

Upload Photos

1,733,151 photos uploaded!

Nearby

Snow Depth

Station Depth Elevation
Hopewell 0 in 10000 ft
Bateman 0 in 9300 ft
Red River Pass #2 0 in 9850 ft
Gallegos Peak 0 in 9800 ft
Chamita 0 in 8400 ft

Earthquake Activity

City Distance Mag. Time & Date
No recent earthquake activity has been reported nearby.
Minimum magnitude displayed is 2.5.

Coastal Water Temperatures

Place Temperature
No Stations Reporting

Nearby Weather Stations

Station Location Temp. Dew Point Humidity Wind Precip. Elev Updated Type
RAWS JARITA MESA NM, Vallecitos, NM 58 °F 45 °F 61% NNW  at  3 mph 0.00 in / hr 8803 ft 4:16 AM MDT MADIS
RAWS WILD RIVERS NM, Questa, NM 61 °F 51 °F 70% West  at  6 mph 0.00 in / hr 7529 ft 3:49 AM MDT MADIS
San Cristobal, San Cristobal, NM 58.9 °F 52 °F 79% ENE  at  0.0 mph 0.00 in / hr 7428 ft 5:06 AM MDT Normal
MesoWest SAN ANTONIO SINK , Las Tablas, NM 52 °F - - North  at  - 0.00 in / hr 9100 ft 4:00 AM MDT MADIS
HADS RED RIVER NEAR QUESTA 2E NM, Questa, NM 63 °F - - North  at  - 0.00 in / hr 7452 ft 4:00 AM MDT MADIS
MesoWest BATEMAN , El Rito, NM 55 °F 47 °F 73% South  at  1 mph 0.00 in / hr 9299 ft 4:00 AM MDT MADIS
MesoWest HOPEWELL , Vallecitos, NM 52 °F 44 °F 74% NNE  at  0 mph 0.00 in / hr 10000 ft 4:00 AM MDT MADIS

Show More Stations Show Fewer Stations